Charleston Air Force Base-International Airport Charleston US
ICAO: KCHS
IATA: CHS
Category: Large
Scheduled Services: Yes

Elevation: 46 ft
TransAlt. 18000 ft.

Airport Communications:
APP:30.692
APP:119.3
ATIS:124.75
CLNC DEL:118
DEP:120.7
GND:121.9
PMSV METRO:34.46
CONSOLIDATED COMD:134.1
PTD:37.22
ANDERSON RDO:122.2
TWR:126
UNICOM:122.95

KCHS Zoom In..

If you have problems with the map follow the link
https://www.worldairports.se/pages/airport.php?
ICAO=KCHS

Runways:

(A) RW 03 length 7000 ft width 150 ft
---- / hdg 31

(B) RW 15 length 9001 ft width 200 ft
ILS 109.70 / hdg 154

(C) RW 21 length 7000 ft width 150 ft
---- / hdg 211

(D) RW 33 length 9001 ft width 200 ft
ILS 108.90 / hdg 334

Location; KCHS
Day. 14 / Time. 04.19 Zulu
* Altimeter: 29.73
* Temperature: 09° c. 48.2°f.
* Wind from: 000° Speed 00 kn.
Dewpoint: 08° c.
Visibility: 1/2 Statute Miles.
Clouds: Overcast 200 ft.
Conditions: Fog.

KCHS 140419Z 00000KT 1/2SM R15/3000V3500FT FG OVC002 09/08 A2973 RMK AO2 T00890083


Wind - Calm.

 
 
jpsmedia worldairports.se 2019   terms of use